createdAt,value
2022-09-04T00:01:35.152Z,1.15
2022-09-04T00:04:17.675Z,1.20
2022-09-04T00:06:56.130Z,0.90
2022-09-04T00:09:33.710Z,1.48
2022-09-04T00:12:05.763Z,1.17
2022-09-04T00:14:41.590Z,1.20
2022-09-04T00:17:15.382Z,1.15
2022-09-04T00:19:49.021Z,1.13
2022-09-04T00:22:27.663Z,1.25
2022-09-04T00:25:03.474Z,1.30
2022-09-04T00:27:44.102Z,1.40
2022-09-04T00:30:17.017Z,1.00
2022-09-04T00:32:51.182Z,0.93
2022-09-04T00:35:24.445Z,1.00
2022-09-04T00:37:59.104Z,1.05
2022-09-04T00:40:31.514Z,1.00
2022-09-04T00:43:30.894Z,0.85
2022-09-04T00:46:21.226Z,1.10
2022-09-04T00:49:18.701Z,1.10
2022-09-04T00:51:55.863Z,1.33
2022-09-04T00:54:38.853Z,1.00
2022-09-04T00:57:48.936Z,1.08
2022-09-04T01:00:19.539Z,1.08
2022-09-04T01:03:24.248Z,1.10
2022-09-04T01:06:19.771Z,1.05
2022-09-04T01:09:13.430Z,1.20
2022-09-04T01:11:44.896Z,1.20
2022-09-04T01:14:19.250Z,1.20
2022-09-04T01:16:50.427Z,0.90
2022-09-04T01:19:37.923Z,0.90
2022-09-04T01:22:17.063Z,1.17
2022-09-04T01:25:03.589Z,0.75
2022-09-04T01:27:39.870Z,1.10
2022-09-04T01:30:10.732Z,1.10
2022-09-04T01:32:46.684Z,1.30
2022-09-04T01:35:26.910Z,1.15
2022-09-04T01:38:04.174Z,1.42
2022-09-04T01:40:39.830Z,1.13
2022-09-04T01:43:12.444Z,1.17
2022-09-04T01:46:30.056Z,1.15
2022-09-04T01:49:04.937Z,1.50
2022-09-04T01:51:39.812Z,2.03
2022-09-04T01:54:29.073Z,2.30
2022-09-04T01:57:09.552Z,2.30
2022-09-04T01:59:53.467Z,3.17
2022-09-04T02:02:26.419Z,2.67
2022-09-04T02:05:08.194Z,2.72
2022-09-04T02:07:46.156Z,3.05
2022-09-04T02:10:24.305Z,2.10
2022-09-04T02:13:00.419Z,2.30
2022-09-04T02:15:37.350Z,2.60
2022-09-04T02:18:13.138Z,2.22
2022-09-04T02:20:48.197Z,2.20
2022-09-04T02:23:24.914Z,2.13
2022-09-04T02:25:59.068Z,2.60
2022-09-04T02:28:38.170Z,2.20
2022-09-04T02:31:15.597Z,2.50
2022-09-04T02:33:48.459Z,3.13
2022-09-04T02:36:24.645Z,2.88
2022-09-04T02:39:03.699Z,3.63
2022-09-04T02:41:38.794Z,3.70
2022-09-04T02:44:22.061Z,3.38
2022-09-04T02:47:01.176Z,3.53
2022-09-04T02:49:38.539Z,3.70
2022-09-04T02:52:20.040Z,3.65
2022-09-04T02:55:08.949Z,3.28
2022-09-04T02:57:48.340Z,3.10
2022-09-04T03:00:21.332Z,2.80
2022-09-04T03:03:10.958Z,2.50
2022-09-04T03:05:47.756Z,3.25
2022-09-04T03:08:19.991Z,3.38
2022-09-04T03:10:54.277Z,3.78
2022-09-04T03:13:28.971Z,3.50
2022-09-04T03:16:02.559Z,4.40
2022-09-04T03:18:38.355Z,3.85
2022-09-04T03:21:11.249Z,4.68
2022-09-04T03:23:46.969Z,4.13
2022-09-04T03:26:22.960Z,4.95
2022-09-04T03:29:01.954Z,4.55
2022-09-04T03:31:41.936Z,4.47
2022-09-04T03:34:25.259Z,5.35
2022-09-04T03:37:09.656Z,4.28
2022-09-04T03:39:46.027Z,4.10
2022-09-04T03:42:23.710Z,5.03
2022-09-04T03:45:05.496Z,4.15
2022-09-04T03:47:42.067Z,4.82
2022-09-04T03:50:24.698Z,4.15
2022-09-04T03:53:00.801Z,5.15
2022-09-04T03:55:49.639Z,4.60
2022-09-04T03:58:23.714Z,4.50
2022-09-04T04:01:01.303Z,4.55
2022-09-04T04:03:48.163Z,4.35
2022-09-04T04:06:28.230Z,3.83
2022-09-04T04:09:30.448Z,4.60
2022-09-04T04:12:18.941Z,3.83
2022-09-04T04:15:03.619Z,3.95
2022-09-04T04:17:49.436Z,4.43
2022-09-04T04:20:31.747Z,3.60
2022-09-04T04:23:20.085Z,4.20
2022-09-04T04:26:08.871Z,4.32
2022-09-04T04:29:00.248Z,3.45
2022-09-04T04:31:44.459Z,3.78
2022-09-04T04:34:24.257Z,3.28
2022-09-04T04:36:59.401Z,3.05
2022-09-04T04:39:38.526Z,2.95
2022-09-04T04:42:21.971Z,3.53
2022-09-04T04:45:29.294Z,2.85
2022-09-04T04:48:40.934Z,3.10
2022-09-04T04:51:19.442Z,2.90
2022-09-04T04:53:55.022Z,3.85
2022-09-04T04:56:31.210Z,3.55
2022-09-04T04:59:20.539Z,3.70
2022-09-04T05:01:57.115Z,3.47
2022-09-04T05:04:34.488Z,3.78
2022-09-04T05:07:11.730Z,3.65
2022-09-04T05:09:47.900Z,3.50
2022-09-04T05:12:25.899Z,3.47
2022-09-04T05:14:58.043Z,4.18
2022-09-04T05:17:34.703Z,3.80
2022-09-04T05:20:24.637Z,4.05
2022-09-04T05:23:01.339Z,3.55
2022-09-04T05:25:38.597Z,3.40
2022-09-04T05:28:20.354Z,3.72
2022-09-04T05:30:53.108Z,4.07
2022-09-04T05:33:30.758Z,4.18
2022-09-04T05:36:06.242Z,3.63
2022-09-04T05:38:40.864Z,3.95
2022-09-04T05:41:19.731Z,4.05
2022-09-04T05:44:01.816Z,4.53
2022-09-04T05:46:46.461Z,4.35
2022-09-04T05:49:34.194Z,3.92
2022-09-04T05:52:26.745Z,4.18
2022-09-04T05:55:22.247Z,3.92
2022-09-04T05:58:01.830Z,4.28
2022-09-04T06:00:36.958Z,4.35
2022-09-04T06:03:32.166Z,4.40
2022-09-04T06:06:14.838Z,4.40
2022-09-04T06:09:03.358Z,4.20
2022-09-04T06:11:42.042Z,4.50
2022-09-04T06:14:21.654Z,5.03
2022-09-04T06:17:01.654Z,5.65
2022-09-04T06:19:40.399Z,5.20
2022-09-04T06:22:26.838Z,4.50
2022-09-04T06:25:23.524Z,5.82
2022-09-04T06:28:08.901Z,6.00
2022-09-04T06:30:44.826Z,6.43
2022-09-04T06:33:30.472Z,6.60
2022-09-04T06:36:19.351Z,6.70
2022-09-04T06:39:09.633Z,7.07
2022-09-04T06:41:55.921Z,9.07
2022-09-04T06:44:38.141Z,9.35
2022-09-04T06:47:15.863Z,9.32
2022-09-04T06:49:58.649Z,9.77
2022-09-04T06:52:34.633Z,7.88
2022-09-04T06:55:13.306Z,6.85
2022-09-04T06:58:07.395Z,8.63
2022-09-04T07:00:44.200Z,7.38
2022-09-04T07:03:47.615Z,7.72
2022-09-04T07:06:23.057Z,7.68
2022-09-04T07:09:00.465Z,8.23
2022-09-04T07:11:42.658Z,8.45
2022-09-04T07:14:38.888Z,7.95
2022-09-04T07:17:15.682Z,7.18
2022-09-04T07:20:09.850Z,7.90
2022-09-04T07:23:08.103Z,7.63
2022-09-04T07:25:44.137Z,7.80
2022-09-04T07:28:24.072Z,8.00
2022-09-04T07:30:57.895Z,8.70
2022-09-04T07:33:32.348Z,7.90
2022-09-04T07:36:08.018Z,7.13
2022-09-04T07:38:44.630Z,7.18
2022-09-04T07:41:31.455Z,7.55
2022-09-04T07:44:06.424Z,6.40
2022-09-04T07:46:44.487Z,4.95
2022-09-04T07:49:19.918Z,5.35
2022-09-04T07:51:56.294Z,3.90
2022-09-04T07:54:52.579Z,5.07
2022-09-04T07:57:39.257Z,4.78
2022-09-04T08:00:10.214Z,4.38
2022-09-04T08:03:01.362Z,4.82
2022-09-04T08:05:32.073Z,4.40
2022-09-04T08:08:28.274Z,5.18
2022-09-04T08:11:22.345Z,6.93
2022-09-04T08:14:14.611Z,5.32
2022-09-04T08:16:50.521Z,5.03
2022-09-04T08:19:32.724Z,5.25
2022-09-04T08:22:04.046Z,5.90
2022-09-04T08:24:52.959Z,6.20
2022-09-04T08:27:36.677Z,6.88
2022-09-04T08:30:14.635Z,5.68
2022-09-04T08:33:10.148Z,5.68
2022-09-04T08:35:46.402Z,5.47
2022-09-04T08:38:35.429Z,6.28
2022-09-04T08:41:25.376Z,6.32
2022-09-04T08:44:44.020Z,5.35
2022-09-04T08:47:43.528Z,6.78
2022-09-04T08:50:39.426Z,6.85
2022-09-04T08:53:44.684Z,6.88
2022-09-04T08:56:36.267Z,6.55
2022-09-04T08:59:46.331Z,6.30
2022-09-04T09:02:45.650Z,5.82
2022-09-04T09:05:56.817Z,6.40
2022-09-04T09:08:45.371Z,5.95
2022-09-04T09:11:40.657Z,7.13
2022-09-04T09:14:34.477Z,6.07
2022-09-04T09:17:13.268Z,5.95
2022-09-04T09:19:47.788Z,5.93
2022-09-04T09:22:36.842Z,6.20
2022-09-04T09:25:20.510Z,6.22
2022-09-04T09:28:23.313Z,5.20
2022-09-04T09:31:15.605Z,6.50
2022-09-04T09:34:25.097Z,5.97
2022-09-04T09:37:12.835Z,7.00
2022-09-04T09:40:05.950Z,6.18
2022-09-04T09:43:11.000Z,5.88
2022-09-04T09:45:58.011Z,5.90
2022-09-04T09:49:19.979Z,5.60
2022-09-04T09:52:37.895Z,5.28
2022-09-04T09:55:53.752Z,5.93
2022-09-04T09:58:52.616Z,6.32
2022-09-04T10:01:36.295Z,6.25
2022-09-04T10:04:22.389Z,5.97
2022-09-04T10:07:22.391Z,6.75
2022-09-04T10:10:10.787Z,6.18
2022-09-04T10:13:07.313Z,6.47
2022-09-04T10:16:06.760Z,6.85
2022-09-04T10:19:23.761Z,6.20
2022-09-04T10:22:34.727Z,4.78
2022-09-04T10:25:31.029Z,5.38
2022-09-04T10:28:30.757Z,5.75
2022-09-04T10:31:39.384Z,5.47
2022-09-04T10:34:55.366Z,6.03
2022-09-04T10:37:44.307Z,6.28
2022-09-04T10:40:38.427Z,5.88
2022-09-04T10:43:33.277Z,5.82
2022-09-04T10:46:09.551Z,5.65
2022-09-04T10:49:17.994Z,6.63
2022-09-04T10:52:13.617Z,5.63
2022-09-04T10:55:13.782Z,5.70
2022-09-04T10:58:05.429Z,5.55
2022-09-04T11:00:45.019Z,5.45
2022-09-04T11:03:40.167Z,5.68
2022-09-04T11:06:37.387Z,5.80
2022-09-04T11:09:28.746Z,5.97
2022-09-04T11:12:18.467Z,4.80
2022-09-04T11:15:21.684Z,5.00
2022-09-04T11:18:15.222Z,4.15
2022-09-04T11:21:21.902Z,4.53
2022-09-04T11:24:25.684Z,4.60
2022-09-04T11:27:10.299Z,4.88
2022-09-04T11:29:59.246Z,3.85
2022-09-04T11:32:56.798Z,3.45
2022-09-04T11:35:54.713Z,2.75
2022-09-04T11:38:57.835Z,2.38
2022-09-04T11:41:58.638Z,2.25
2022-09-04T11:45:03.842Z,2.40
2022-09-04T11:47:50.556Z,2.25
2022-09-04T11:50:36.600Z,2.05
2022-09-04T11:53:55.954Z,1.73
2022-09-04T11:56:43.591Z,1.80
2022-09-04T11:59:27.907Z,2.20
2022-09-04T12:02:28.640Z,2.00
2022-09-04T12:05:11.217Z,1.80
2022-09-04T12:07:53.492Z,1.67
2022-09-04T12:10:35.663Z,1.55
2022-09-04T12:13:52.569Z,2.10
2022-09-04T12:16:52.927Z,1.60
2022-09-04T12:20:07.749Z,1.38
2022-09-04T12:23:19.006Z,2.00
2022-09-04T12:26:21.433Z,1.90
2022-09-04T12:29:10.630Z,1.75
2022-09-04T12:32:07.307Z,1.45
2022-09-04T12:34:54.478Z,1.58
2022-09-04T12:37:53.946Z,1.52
2022-09-04T12:40:34.482Z,1.50
2022-09-04T12:43:20.412Z,1.30
2022-09-04T12:45:58.878Z,1.30
2022-09-04T12:48:38.187Z,1.73
2022-09-04T12:51:15.077Z,1.70
2022-09-04T12:53:58.492Z,1.40
2022-09-04T12:56:42.774Z,1.45
2022-09-04T12:59:30.357Z,1.40
2022-09-04T13:02:04.288Z,1.15
2022-09-04T13:04:47.046Z,1.90
2022-09-04T13:07:34.480Z,1.63
2022-09-04T13:10:17.622Z,1.83
2022-09-04T13:12:55.696Z,1.65
2022-09-04T13:15:32.297Z,1.80
2022-09-04T13:18:21.205Z,2.00
2022-09-04T13:20:57.994Z,1.85
2022-09-04T13:23:57.247Z,2.00
2022-09-04T13:26:38.926Z,2.10
2022-09-04T13:29:19.566Z,2.13
2022-09-04T13:32:13.018Z,1.73
2022-09-04T13:35:00.394Z,1.95
2022-09-04T13:37:34.177Z,1.85
2022-09-04T13:40:22.385Z,1.85
2022-09-04T13:43:27.414Z,1.80
2022-09-04T13:45:58.485Z,1.50
2022-09-04T13:48:37.294Z,1.33
2022-09-04T13:51:13.925Z,1.58
2022-09-04T13:53:57.358Z,1.70
2022-09-04T13:56:34.451Z,1.73
2022-09-04T13:59:09.498Z,1.50
2022-09-04T14:01:45.853Z,1.70
2022-09-04T14:04:19.320Z,1.80
2022-09-04T14:06:49.035Z,1.40
2022-09-04T14:09:17.832Z,1.52
2022-09-04T14:12:07.279Z,1.65
2022-09-04T14:15:05.498Z,1.58
2022-09-04T14:17:41.900Z,1.52
2022-09-04T14:20:21.808Z,1.33
2022-09-04T14:23:02.617Z,1.15
2022-09-04T14:25:37.510Z,1.20
2022-09-04T14:28:16.143Z,1.10
2022-09-04T14:31:00.396Z,1.10
2022-09-04T14:33:37.177Z,1.25
2022-09-04T14:36:21.670Z,1.25
2022-09-04T14:39:06.749Z,1.10
2022-09-04T14:42:07.754Z,1.13
2022-09-04T14:44:54.393Z,1.23
2022-09-04T14:47:35.035Z,1.33
2022-09-04T14:50:04.055Z,0.98
2022-09-04T14:52:39.929Z,1.05
2022-09-04T14:55:14.974Z,1.00
2022-09-04T14:57:48.401Z,0.90
2022-09-04T15:00:19.700Z,1.17
2022-09-04T15:02:56.785Z,1.30
2022-09-04T15:05:29.129Z,1.10
2022-09-04T15:08:00.191Z,0.98
2022-09-04T15:10:47.025Z,0.95
2022-09-04T15:13:49.798Z,1.10
2022-09-04T15:16:24.766Z,1.00
2022-09-04T15:19:18.689Z,1.10
2022-09-04T15:21:56.695Z,0.98
2022-09-04T15:24:29.058Z,1.20
2022-09-04T15:27:09.500Z,1.15
2022-09-04T15:29:44.020Z,1.10
2022-09-04T15:32:22.013Z,1.40
2022-09-04T15:34:50.676Z,1.40
2022-09-04T15:37:25.720Z,1.17
2022-09-04T15:40:04.183Z,1.10
2022-09-04T15:42:43.981Z,1.10
2022-09-04T15:45:20.730Z,1.25
2022-09-04T15:48:11.162Z,1.02
2022-09-04T15:50:57.524Z,1.30
2022-09-04T15:53:29.236Z,1.15
2022-09-04T15:56:10.551Z,1.10
2022-09-04T15:58:51.047Z,1.42
2022-09-04T16:01:24.872Z,1.50
2022-09-04T16:04:07.163Z,1.42
2022-09-04T16:06:43.595Z,1.40
2022-09-04T16:09:21.544Z,1.65
2022-09-04T16:11:59.716Z,1.38
2022-09-04T16:14:31.759Z,1.50
2022-09-04T16:17:03.068Z,1.50
2022-09-04T16:19:39.399Z,1.48
2022-09-04T16:22:18.766Z,1.20
2022-09-04T16:24:48.453Z,1.48
2022-09-04T16:27:19.554Z,1.20
2022-09-04T16:29:51.861Z,1.67
2022-09-04T16:32:22.025Z,1.50
2022-09-04T16:34:55.252Z,1.48
2022-09-04T16:37:30.897Z,1.40
2022-09-04T16:40:17.474Z,1.63
2022-09-04T16:42:50.011Z,1.20
2022-09-04T16:45:22.144Z,1.60
2022-09-04T16:47:56.547Z,1.70
2022-09-04T16:50:35.618Z,1.77
2022-09-04T16:53:14.597Z,1.58
2022-09-04T16:55:50.463Z,1.60
2022-09-04T16:58:35.421Z,1.73
2022-09-04T17:01:15.470Z,1.30
2022-09-04T17:04:13.550Z,1.80
2022-09-04T17:07:02.678Z,1.50
2022-09-04T17:09:46.710Z,1.50
2022-09-04T17:12:27.240Z,1.85
2022-09-04T17:15:02.797Z,1.90
2022-09-04T17:17:32.296Z,1.50
2022-09-04T17:20:03.614Z,1.77
2022-09-04T17:29:00.827Z,1.80
2022-09-04T17:29:08.058Z,1.88
2022-09-04T17:29:11.655Z,2.00
2022-09-04T17:31:34.821Z,1.80
2022-09-04T17:40:01.818Z,1.92
2022-09-04T17:40:41.016Z,1.92
2022-09-04T17:40:50.560Z,1.70
2022-09-04T17:43:22.620Z,1.80
2022-09-04T17:46:06.580Z,1.75
2022-09-04T17:48:41.511Z,1.95
2022-09-04T17:51:17.385Z,1.50
2022-09-04T17:53:51.755Z,1.60
2022-09-04T17:56:27.346Z,1.90
2022-09-04T17:59:01.162Z,1.40
2022-09-04T18:01:35.045Z,1.75
2022-09-04T18:04:21.845Z,1.50
2022-09-04T18:06:58.699Z,1.80
2022-09-04T18:09:34.108Z,2.08
2022-09-04T18:12:11.096Z,1.88
2022-09-04T18:14:53.137Z,1.73
2022-09-04T18:17:45.373Z,1.90
2022-09-04T18:20:19.670Z,1.77
2022-09-04T18:23:30.689Z,1.60
2022-09-04T18:26:04.981Z,1.85
2022-09-04T18:28:48.625Z,1.92
2022-09-04T18:37:10.212Z,1.58
2022-09-04T18:37:18.899Z,1.70
2022-09-04T18:37:44.572Z,1.90
2022-09-04T18:40:12.473Z,1.75
2022-09-04T18:50:24.067Z,2.42
2022-09-04T18:50:24.714Z,1.92
2022-09-04T18:50:33.199Z,2.00
2022-09-04T18:51:25.139Z,2.25
2022-09-04T18:53:57.512Z,1.80
2022-09-04T18:56:30.346Z,1.33
2022-09-04T18:59:03.114Z,1.90
2022-09-04T19:01:41.910Z,1.98
2022-09-04T19:04:43.274Z,1.70
2022-09-04T19:07:23.033Z,2.10
2022-09-04T19:10:04.519Z,2.13
2022-09-04T19:12:47.416Z,1.85
2022-09-04T19:15:57.228Z,1.95
2022-09-04T19:18:35.731Z,1.90
2022-09-04T19:21:21.967Z,1.73
2022-09-04T19:23:56.388Z,1.95
2022-09-04T19:26:35.758Z,2.17
2022-09-04T19:29:12.388Z,2.40
2022-09-04T19:31:45.256Z,2.20
2022-09-04T19:34:20.309Z,2.08
2022-09-04T19:36:55.156Z,2.42
2022-09-04T19:45:59.352Z,1.75
2022-09-04T19:46:06.316Z,2.03
2022-09-04T19:46:14.247Z,2.15
2022-09-04T19:48:31.986Z,1.92
2022-09-04T19:53:30.676Z,1.67
2022-09-04T19:54:03.001Z,1.92
2022-09-04T19:56:51.817Z,2.03
2022-09-04T19:59:28.147Z,2.30
2022-09-04T20:02:02.983Z,1.90
2022-09-04T20:04:37.288Z,2.30
2022-09-04T20:07:18.185Z,2.40
2022-09-04T20:09:49.551Z,2.25
2022-09-04T20:12:21.723Z,2.13
2022-09-04T20:14:55.092Z,3.10
2022-09-04T20:17:40.358Z,4.05
2022-09-04T20:20:19.075Z,4.75
2022-09-04T20:22:54.890Z,5.80
2022-09-04T20:25:39.677Z,8.18
2022-09-04T20:28:29.251Z,10.23
2022-09-04T20:31:40.095Z,10.35
2022-09-04T20:34:23.094Z,9.57
2022-09-04T20:36:59.203Z,7.78
2022-09-04T20:39:35.990Z,6.90
2022-09-04T20:42:10.481Z,6.78
2022-09-04T20:45:01.501Z,5.93
2022-09-04T20:52:42.866Z,7.60
2022-09-04T20:52:52.984Z,6.40
2022-09-04T20:53:28.935Z,5.15
2022-09-04T20:57:36.028Z,5.40
2022-09-04T21:02:50.654Z,5.28
2022-09-04T21:03:21.747Z,4.20
2022-09-04T21:05:28.255Z,4.35
2022-09-04T21:08:03.553Z,4.07
2022-09-04T21:10:36.835Z,3.38
2022-09-04T21:13:14.373Z,3.35
2022-09-04T21:15:52.956Z,3.28
2022-09-04T21:19:27.975Z,3.00
2022-09-04T21:22:32.361Z,2.75
2022-09-04T21:25:35.123Z,2.40
2022-09-04T21:28:24.105Z,2.83
2022-09-04T21:31:04.542Z,3.03
2022-09-04T21:33:39.066Z,2.95
2022-09-04T21:36:25.721Z,3.20
2022-09-04T21:39:23.655Z,3.65
2022-09-04T21:42:16.761Z,3.72
2022-09-04T21:45:20.727Z,3.50
2022-09-04T21:48:17.828Z,3.28
2022-09-04T21:51:01.450Z,3.33
2022-09-04T21:53:56.612Z,3.38
2022-09-04T22:02:25.004Z,3.42
2022-09-04T22:02:38.665Z,3.20
2022-09-04T22:03:29.273Z,3.10
2022-09-04T22:06:07.962Z,3.00
2022-09-04T22:13:28.747Z,2.80
2022-09-04T22:13:45.532Z,2.95
2022-09-04T22:14:53.913Z,2.78
2022-09-04T22:17:51.741Z,2.83
2022-09-04T22:20:47.478Z,2.60
2022-09-04T22:23:49.046Z,3.00
2022-09-04T22:26:48.438Z,3.03
2022-09-04T22:29:39.929Z,3.42
2022-09-04T22:32:43.455Z,3.05
2022-09-04T22:35:37.343Z,3.42
2022-09-04T22:38:40.569Z,3.05
2022-09-04T22:41:50.717Z,3.00
2022-09-04T22:44:34.766Z,3.10
2022-09-04T22:47:27.268Z,3.20
2022-09-04T22:50:49.590Z,3.00
2022-09-04T22:54:01.332Z,3.00
2022-09-04T22:56:50.439Z,2.80
2022-09-04T22:59:38.652Z,3.13
2022-09-04T23:03:07.275Z,3.33
2022-09-04T23:06:06.746Z,3.20
2022-09-04T23:13:44.685Z,3.45
2022-09-04T23:13:51.941Z,3.58
2022-09-04T23:15:14.955Z,3.08
2022-09-04T23:23:15.628Z,3.53
2022-09-04T23:26:45.161Z,3.30
2022-09-04T23:26:53.342Z,3.25
2022-09-04T23:27:31.298Z,3.30
2022-09-04T23:30:25.158Z,3.55
2022-09-04T23:33:44.793Z,2.92
2022-09-04T23:36:37.160Z,3.50
2022-09-04T23:39:29.767Z,3.10
2022-09-04T23:42:13.906Z,3.75
2022-09-04T23:45:20.286Z,3.28
2022-09-04T23:48:25.313Z,3.08
2022-09-04T23:50:59.943Z,2.95
2022-09-04T23:53:38.202Z,3.20
2022-09-04T23:56:21.084Z,3.33
2022-09-04T23:59:30.203Z,3.10
